sensor_id;sensor_type;location;lat;lon;timestamp;P1;durP1;ratioP1;P2;durP2;ratioP2
21038;SDS011;10678;51.002;4.786;2023-04-03T00:01:23;7.87;;;5.00;;
21038;SDS011;10678;51.002;4.786;2023-04-03T00:03:49;12.20;;;5.23;;
21038;SDS011;10678;51.002;4.786;2023-04-03T00:06:16;11.77;;;5.50;;
21038;SDS011;10678;51.002;4.786;2023-04-03T00:08:42;14.00;;;6.10;;
21038;SDS011;10678;51.002;4.786;2023-04-03T00:11:08;10.73;;;5.37;;
21038;SDS011;10678;51.002;4.786;2023-04-03T00:13:34;7.50;;;4.77;;
21038;SDS011;10678;51.002;4.786;2023-04-03T00:16:00;11.83;;;4.63;;
21038;SDS011;10678;51.002;4.786;2023-04-03T00:18:28;10.60;;;4.80;;
21038;SDS011;10678;51.002;4.786;2023-04-03T00:20:54;10.73;;;4.60;;
21038;SDS011;10678;51.002;4.786;2023-04-03T00:23:19;10.03;;;5.10;;
21038;SDS011;10678;51.002;4.786;2023-04-03T00:25:45;9.40;;;4.10;;
21038;SDS011;10678;51.002;4.786;2023-04-03T00:28:11;7.80;;;4.37;;
21038;SDS011;10678;51.002;4.786;2023-04-03T00:30:36;9.67;;;4.53;;
21038;SDS011;10678;51.002;4.786;2023-04-03T00:33:02;7.23;;;4.03;;
21038;SDS011;10678;51.002;4.786;2023-04-03T00:35:28;8.73;;;4.40;;
21038;SDS011;10678;51.002;4.786;2023-04-03T00:37:54;8.33;;;3.73;;
21038;SDS011;10678;51.002;4.786;2023-04-03T00:40:21;7.97;;;4.10;;
21038;SDS011;10678;51.002;4.786;2023-04-03T00:42:49;8.90;;;4.47;;
21038;SDS011;10678;51.002;4.786;2023-04-03T00:47:43;10.13;;;3.97;;
21038;SDS011;10678;51.002;4.786;2023-04-03T00:50:09;7.07;;;3.83;;
21038;SDS011;10678;51.002;4.786;2023-04-03T00:52:35;8.30;;;4.13;;
21038;SDS011;10678;51.002;4.786;2023-04-03T00:55:03;15.43;;;4.57;;
21038;SDS011;10678;51.002;4.786;2023-04-03T00:57:32;7.43;;;3.53;;
21038;SDS011;10678;51.002;4.786;2023-04-03T00:59:59;8.37;;;4.23;;
21038;SDS011;10678;51.002;4.786;2023-04-03T01:02:29;8.83;;;4.23;;
21038;SDS011;10678;51.002;4.786;2023-04-03T01:04:55;9.20;;;4.30;;
21038;SDS011;10678;51.002;4.786;2023-04-03T01:07:22;8.10;;;3.80;;
21038;SDS011;10678;51.002;4.786;2023-04-03T01:09:52;9.50;;;4.20;;
21038;SDS011;10678;51.002;4.786;2023-04-03T01:12:23;8.40;;;3.90;;
21038;SDS011;10678;51.002;4.786;2023-04-03T01:14:56;6.97;;;3.73;;
21038;SDS011;10678;51.002;4.786;2023-04-03T01:25:29;8.20;;;4.17;;
21038;SDS011;10678;51.002;4.786;2023-04-03T01:27:54;11.07;;;4.83;;
21038;SDS011;10678;51.002;4.786;2023-04-03T01:30:21;9.43;;;4.13;;
21038;SDS011;10678;51.002;4.786;2023-04-03T01:32:52;7.20;;;4.37;;
21038;SDS011;10678;51.002;4.786;2023-04-03T01:35:18;12.00;;;4.33;;
21038;SDS011;10678;51.002;4.786;2023-04-03T01:37:43;11.80;;;4.30;;
21038;SDS011;10678;51.002;4.786;2023-04-03T01:40:09;9.27;;;4.37;;
21038;SDS011;10678;51.002;4.786;2023-04-03T01:42:35;8.30;;;4.40;;
21038;SDS011;10678;51.002;4.786;2023-04-03T01:45:01;7.57;;;4.10;;
21038;SDS011;10678;51.002;4.786;2023-04-03T01:47:26;14.10;;;4.40;;
21038;SDS011;10678;51.002;4.786;2023-04-03T01:49:52;7.30;;;4.33;;
21038;SDS011;10678;51.002;4.786;2023-04-03T01:52:17;8.70;;;4.00;;
21038;SDS011;10678;51.002;4.786;2023-04-03T01:54:43;8.97;;;4.33;;
21038;SDS011;10678;51.002;4.786;2023-04-03T01:57:08;11.57;;;4.70;;
21038;SDS011;10678;51.002;4.786;2023-04-03T01:59:35;7.87;;;4.30;;
21038;SDS011;10678;51.002;4.786;2023-04-03T02:02:00;7.03;;;3.93;;
21038;SDS011;10678;51.002;4.786;2023-04-03T02:04:26;10.43;;;4.77;;
21038;SDS011;10678;51.002;4.786;2023-04-03T02:06:52;9.13;;;4.17;;
21038;SDS011;10678;51.002;4.786;2023-04-03T02:09:17;7.77;;;4.30;;
21038;SDS011;10678;51.002;4.786;2023-04-03T02:11:43;9.50;;;3.97;;
21038;SDS011;10678;51.002;4.786;2023-04-03T02:14:08;10.37;;;4.53;;
21038;SDS011;10678;51.002;4.786;2023-04-03T02:16:34;9.27;;;4.57;;
21038;SDS011;10678;51.002;4.786;2023-04-03T02:19:00;7.63;;;4.27;;
21038;SDS011;10678;51.002;4.786;2023-04-03T02:21:25;9.60;;;4.70;;
21038;SDS011;10678;51.002;4.786;2023-04-03T02:23:51;8.07;;;4.90;;
21038;SDS011;10678;51.002;4.786;2023-04-03T02:26:17;6.73;;;3.83;;
21038;SDS011;10678;51.002;4.786;2023-04-03T02:28:42;11.03;;;4.57;;
21038;SDS011;10678;51.002;4.786;2023-04-03T02:31:09;8.13;;;4.40;;
21038;SDS011;10678;51.002;4.786;2023-04-03T02:33:35;9.20;;;5.27;;
21038;SDS011;10678;51.002;4.786;2023-04-03T02:36:01;7.40;;;5.03;;
21038;SDS011;10678;51.002;4.786;2023-04-03T02:38:28;8.57;;;4.97;;
21038;SDS011;10678;51.002;4.786;2023-04-03T02:40:59;9.97;;;4.73;;
21038;SDS011;10678;51.002;4.786;2023-04-03T02:43:25;11.47;;;4.63;;
21038;SDS011;10678;51.002;4.786;2023-04-03T02:45:51;11.03;;;5.03;;
21038;SDS011;10678;51.002;4.786;2023-04-03T02:48:16;8.83;;;4.50;;
21038;SDS011;10678;51.002;4.786;2023-04-03T02:50:42;9.33;;;5.13;;
21038;SDS011;10678;51.002;4.786;2023-04-03T02:53:08;9.80;;;4.57;;
21038;SDS011;10678;51.002;4.786;2023-04-03T02:55:33;9.80;;;5.37;;
21038;SDS011;10678;51.002;4.786;2023-04-03T02:57:59;8.63;;;5.00;;
21038;SDS011;10678;51.002;4.786;2023-04-03T03:00:24;12.30;;;5.37;;
21038;SDS011;10678;51.002;4.786;2023-04-03T03:02:50;10.03;;;5.27;;
21038;SDS011;10678;51.002;4.786;2023-04-03T03:05:16;9.57;;;4.97;;
21038;SDS011;10678;51.002;4.786;2023-04-03T03:07:41;10.93;;;5.27;;
21038;SDS011;10678;51.002;4.786;2023-04-03T03:10:07;10.00;;;5.07;;
21038;SDS011;10678;51.002;4.786;2023-04-03T03:12:33;9.03;;;5.13;;
21038;SDS011;10678;51.002;4.786;2023-04-03T03:14:58;11.20;;;5.27;;
21038;SDS011;10678;51.002;4.786;2023-04-03T03:17:24;9.20;;;5.30;;
21038;SDS011;10678;51.002;4.786;2023-04-03T03:19:49;8.50;;;5.13;;
21038;SDS011;10678;51.002;4.786;2023-04-03T03:22:16;11.90;;;5.63;;
21038;SDS011;10678;51.002;4.786;2023-04-03T03:24:41;13.07;;;5.90;;
21038;SDS011;10678;51.002;4.786;2023-04-03T03:27:07;9.50;;;5.30;;
21038;SDS011;10678;51.002;4.786;2023-04-03T03:29:32;10.60;;;5.73;;
21038;SDS011;10678;51.002;4.786;2023-04-03T03:31:58;11.03;;;5.83;;
21038;SDS011;10678;51.002;4.786;2023-04-03T03:34:24;8.83;;;5.37;;
21038;SDS011;10678;51.002;4.786;2023-04-03T03:36:49;11.13;;;4.90;;
21038;SDS011;10678;51.002;4.786;2023-04-03T03:39:15;10.50;;;5.90;;
21038;SDS011;10678;51.002;4.786;2023-04-03T03:41:41;15.40;;;5.60;;
21038;SDS011;10678;51.002;4.786;2023-04-03T03:44:07;11.17;;;5.30;;
21038;SDS011;10678;51.002;4.786;2023-04-03T03:46:33;10.03;;;5.57;;
21038;SDS011;10678;51.002;4.786;2023-04-03T03:48:58;12.50;;;6.13;;
21038;SDS011;10678;51.002;4.786;2023-04-03T03:51:24;9.57;;;5.30;;
21038;SDS011;10678;51.002;4.786;2023-04-03T03:53:50;8.83;;;5.33;;
21038;SDS011;10678;51.002;4.786;2023-04-03T03:56:15;10.00;;;5.40;;
21038;SDS011;10678;51.002;4.786;2023-04-03T03:58:41;10.27;;;5.33;;
21038;SDS011;10678;51.002;4.786;2023-04-03T04:01:07;10.67;;;6.03;;
21038;SDS011;10678;51.002;4.786;2023-04-03T04:03:33;9.67;;;6.20;;
21038;SDS011;10678;51.002;4.786;2023-04-03T04:05:58;9.30;;;5.50;;
21038;SDS011;10678;51.002;4.786;2023-04-03T04:08:25;9.63;;;5.97;;
21038;SDS011;10678;51.002;4.786;2023-04-03T04:10:50;11.97;;;5.70;;
21038;SDS011;10678;51.002;4.786;2023-04-03T04:13:16;9.43;;;5.97;;
21038;SDS011;10678;51.002;4.786;2023-04-03T04:15:42;13.10;;;6.20;;
21038;SDS011;10678;51.002;4.786;2023-04-03T04:18:08;10.50;;;6.30;;
21038;SDS011;10678;51.002;4.786;2023-04-03T04:20:33;11.03;;;6.27;;
21038;SDS011;10678;51.002;4.786;2023-04-03T04:22:59;10.23;;;6.20;;
21038;SDS011;10678;51.002;4.786;2023-04-03T04:25:25;9.03;;;6.03;;
21038;SDS011;10678;51.002;4.786;2023-04-03T04:27:50;9.60;;;5.93;;
21038;SDS011;10678;51.002;4.786;2023-04-03T04:30:16;10.20;;;5.80;;
21038;SDS011;10678;51.002;4.786;2023-04-03T04:32:41;11.23;;;5.73;;
21038;SDS011;10678;51.002;4.786;2023-04-03T04:35:07;11.53;;;6.03;;
21038;SDS011;10678;51.002;4.786;2023-04-03T04:37:33;11.70;;;6.50;;
21038;SDS011;10678;51.002;4.786;2023-04-03T04:39:58;10.93;;;6.00;;
21038;SDS011;10678;51.002;4.786;2023-04-03T04:42:24;17.07;;;6.73;;
21038;SDS011;10678;51.002;4.786;2023-04-03T04:44:50;13.97;;;6.87;;
21038;SDS011;10678;51.002;4.786;2023-04-03T04:47:16;15.47;;;6.80;;
21038;SDS011;10678;51.002;4.786;2023-04-03T04:49:42;11.27;;;6.63;;
21038;SDS011;10678;51.002;4.786;2023-04-03T04:52:07;12.30;;;6.80;;
21038;SDS011;10678;51.002;4.786;2023-04-03T04:54:33;14.90;;;6.73;;
21038;SDS011;10678;51.002;4.786;2023-04-03T04:56:58;14.33;;;6.57;;
21038;SDS011;10678;51.002;4.786;2023-04-03T04:59:24;12.60;;;6.90;;
21038;SDS011;10678;51.002;4.786;2023-04-03T05:01:50;11.97;;;7.00;;
21038;SDS011;10678;51.002;4.786;2023-04-03T05:04:16;12.83;;;6.57;;
21038;SDS011;10678;51.002;4.786;2023-04-03T05:06:42;9.90;;;6.50;;
21038;SDS011;10678;51.002;4.786;2023-04-03T05:09:08;10.73;;;6.00;;
21038;SDS011;10678;51.002;4.786;2023-04-03T05:11:34;12.27;;;6.70;;
21038;SDS011;10678;51.002;4.786;2023-04-03T05:14:00;14.23;;;7.67;;
21038;SDS011;10678;51.002;4.786;2023-04-03T05:16:26;11.97;;;6.80;;
21038;SDS011;10678;51.002;4.786;2023-04-03T05:18:52;12.40;;;7.83;;
21038;SDS011;10678;51.002;4.786;2023-04-03T05:21:18;12.43;;;6.80;;
21038;SDS011;10678;51.002;4.786;2023-04-03T05:23:43;13.17;;;7.13;;
21038;SDS011;10678;51.002;4.786;2023-04-03T05:26:09;12.90;;;7.07;;
21038;SDS011;10678;51.002;4.786;2023-04-03T05:28:35;12.27;;;7.10;;
21038;SDS011;10678;51.002;4.786;2023-04-03T05:31:01;13.93;;;7.30;;
21038;SDS011;10678;51.002;4.786;2023-04-03T05:33:27;13.93;;;7.47;;
21038;SDS011;10678;51.002;4.786;2023-04-03T05:35:53;11.17;;;6.63;;
21038;SDS011;10678;51.002;4.786;2023-04-03T05:38:19;16.37;;;7.47;;
21038;SDS011;10678;51.002;4.786;2023-04-03T05:40:45;12.87;;;7.33;;
21038;SDS011;10678;51.002;4.786;2023-04-03T05:43:12;12.90;;;8.03;;
21038;SDS011;10678;51.002;4.786;2023-04-03T05:45:38;15.57;;;7.93;;
21038;SDS011;10678;51.002;4.786;2023-04-03T05:48:03;13.83;;;7.80;;
21038;SDS011;10678;51.002;4.786;2023-04-03T05:50:29;20.20;;;7.90;;
21038;SDS011;10678;51.002;4.786;2023-04-03T05:52:55;13.47;;;7.43;;
21038;SDS011;10678;51.002;4.786;2023-04-03T05:55:23;10.77;;;7.00;;
21038;SDS011;10678;51.002;4.786;2023-04-03T05:57:49;14.27;;;8.20;;
21038;SDS011;10678;51.002;4.786;2023-04-03T06:00:15;16.20;;;7.97;;
21038;SDS011;10678;51.002;4.786;2023-04-03T06:02:41;14.77;;;8.10;;
21038;SDS011;10678;51.002;4.786;2023-04-03T06:05:07;14.83;;;8.13;;
21038;SDS011;10678;51.002;4.786;2023-04-03T06:07:34;13.37;;;8.47;;
21038;SDS011;10678;51.002;4.786;2023-04-03T06:10:00;13.87;;;8.10;;
21038;SDS011;10678;51.002;4.786;2023-04-03T06:12:26;14.60;;;8.17;;
21038;SDS011;10678;51.002;4.786;2023-04-03T06:14:54;13.73;;;8.33;;
21038;SDS011;10678;51.002;4.786;2023-04-03T06:17:20;16.07;;;7.87;;
21038;SDS011;10678;51.002;4.786;2023-04-03T06:19:46;13.13;;;7.73;;
21038;SDS011;10678;51.002;4.786;2023-04-03T06:22:12;15.00;;;8.73;;
21038;SDS011;10678;51.002;4.786;2023-04-03T06:24:38;15.07;;;8.10;;
21038;SDS011;10678;51.002;4.786;2023-04-03T06:27:04;18.77;;;9.03;;
21038;SDS011;10678;51.002;4.786;2023-04-03T06:29:30;23.43;;;8.67;;
21038;SDS011;10678;51.002;4.786;2023-04-03T06:31:56;12.97;;;8.23;;
21038;SDS011;10678;51.002;4.786;2023-04-03T06:34:21;16.53;;;9.57;;
21038;SDS011;10678;51.002;4.786;2023-04-03T06:36:47;18.57;;;9.90;;
21038;SDS011;10678;51.002;4.786;2023-04-03T06:39:17;17.23;;;9.23;;
21038;SDS011;10678;51.002;4.786;2023-04-03T06:41:47;19.60;;;8.93;;
21038;SDS011;10678;51.002;4.786;2023-04-03T06:44:14;15.43;;;9.03;;
21038;SDS011;10678;51.002;4.786;2023-04-03T06:46:41;16.87;;;9.40;;
21038;SDS011;10678;51.002;4.786;2023-04-03T06:49:07;21.20;;;9.93;;
21038;SDS011;10678;51.002;4.786;2023-04-03T06:51:33;15.43;;;8.40;;
21038;SDS011;10678;51.002;4.786;2023-04-03T06:54:00;13.90;;;8.03;;
21038;SDS011;10678;51.002;4.786;2023-04-03T06:56:27;14.73;;;8.73;;
21038;SDS011;10678;51.002;4.786;2023-04-03T06:58:56;13.93;;;8.17;;
21038;SDS011;10678;51.002;4.786;2023-04-03T07:01:25;13.90;;;8.07;;
21038;SDS011;10678;51.002;4.786;2023-04-03T07:03:52;13.77;;;7.87;;
21038;SDS011;10678;51.002;4.786;2023-04-03T07:06:18;13.50;;;6.90;;
21038;SDS011;10678;51.002;4.786;2023-04-03T07:08:45;11.10;;;5.97;;
21038;SDS011;10678;51.002;4.786;2023-04-03T07:11:12;10.10;;;6.20;;
21038;SDS011;10678;51.002;4.786;2023-04-03T07:13:37;13.17;;;6.50;;
21038;SDS011;10678;51.002;4.786;2023-04-03T07:16:04;9.20;;;5.67;;
21038;SDS011;10678;51.002;4.786;2023-04-03T07:18:31;12.53;;;5.57;;
21038;SDS011;10678;51.002;4.786;2023-04-03T07:20:57;8.13;;;4.77;;
21038;SDS011;10678;51.002;4.786;2023-04-03T07:23:23;12.67;;;5.97;;
21038;SDS011;10678;51.002;4.786;2023-04-03T07:25:49;7.83;;;5.03;;
21038;SDS011;10678;51.002;4.786;2023-04-03T07:28:17;13.23;;;5.17;;
21038;SDS011;10678;51.002;4.786;2023-04-03T07:30:48;11.73;;;4.97;;
21038;SDS011;10678;51.002;4.786;2023-04-03T07:33:16;11.33;;;5.00;;
21038;SDS011;10678;51.002;4.786;2023-04-03T07:35:43;12.27;;;5.40;;
21038;SDS011;10678;51.002;4.786;2023-04-03T07:38:09;11.90;;;4.87;;
21038;SDS011;10678;51.002;4.786;2023-04-03T07:40:36;12.23;;;4.93;;
21038;SDS011;10678;51.002;4.786;2023-04-03T07:43:02;10.50;;;4.43;;
21038;SDS011;10678;51.002;4.786;2023-04-03T07:45:28;9.20;;;4.00;;
21038;SDS011;10678;51.002;4.786;2023-04-03T07:47:54;7.63;;;3.63;;
21038;SDS011;10678;51.002;4.786;2023-04-03T07:50:20;9.03;;;3.87;;
21038;SDS011;10678;51.002;4.786;2023-04-03T07:52:47;9.13;;;2.90;;
21038;SDS011;10678;51.002;4.786;2023-04-03T07:55:13;9.07;;;3.78;;
21038;SDS011;10678;51.002;4.786;2023-04-03T07:57:39;7.30;;;3.53;;
21038;SDS011;10678;51.002;4.786;2023-04-03T08:00:05;6.50;;;2.92;;
21038;SDS011;10678;51.002;4.786;2023-04-03T08:02:31;8.20;;;2.88;;
21038;SDS011;10678;51.002;4.786;2023-04-03T08:04:57;11.25;;;3.53;;
21038;SDS011;10678;51.002;4.786;2023-04-03T08:07:23;11.10;;;3.40;;
21038;SDS011;10678;51.002;4.786;2023-04-03T08:09:49;8.05;;;2.72;;
21038;SDS011;10678;51.002;4.786;2023-04-03T08:12:15;8.75;;;3.00;;
21038;SDS011;10678;51.002;4.786;2023-04-03T08:14:41;8.32;;;3.10;;
21038;SDS011;10678;51.002;4.786;2023-04-03T08:17:07;6.28;;;2.60;;
21038;SDS011;10678;51.002;4.786;2023-04-03T08:19:36;9.52;;;3.78;;
21038;SDS011;10678;51.002;4.786;2023-04-03T08:22:02;7.55;;;2.65;;
21038;SDS011;10678;51.002;4.786;2023-04-03T08:24:28;9.40;;;2.97;;
21038;SDS011;10678;51.002;4.786;2023-04-03T08:26:54;6.82;;;2.55;;
21038;SDS011;10678;51.002;4.786;2023-04-03T08:29:20;6.35;;;2.63;;
21038;SDS011;10678;51.002;4.786;2023-04-03T08:31:46;7.25;;;2.25;;
21038;SDS011;10678;51.002;4.786;2023-04-03T08:34:12;6.65;;;2.38;;
21038;SDS011;10678;51.002;4.786;2023-04-03T08:36:39;5.65;;;1.80;;
21038;SDS011;10678;51.002;4.786;2023-04-03T08:39:05;6.00;;;2.42;;
21038;SDS011;10678;51.002;4.786;2023-04-03T08:41:35;8.43;;;2.28;;
21038;SDS011;10678;51.002;4.786;2023-04-03T08:49:21;6.18;;;2.50;;
21038;SDS011;10678;51.002;4.786;2023-04-03T08:51:50;8.48;;;2.67;;
21038;SDS011;10678;51.002;4.786;2023-04-03T08:54:21;5.85;;;1.92;;
21038;SDS011;10678;51.002;4.786;2023-04-03T08:57:09;6.35;;;2.45;;
21038;SDS011;10678;51.002;4.786;2023-04-03T08:59:36;8.30;;;2.53;;
21038;SDS011;10678;51.002;4.786;2023-04-03T09:02:10;5.97;;;1.95;;
21038;SDS011;10678;51.002;4.786;2023-04-03T09:04:50;8.15;;;2.30;;
21038;SDS011;10678;51.002;4.786;2023-04-03T09:07:31;7.63;;;2.20;;
21038;SDS011;10678;51.002;4.786;2023-04-03T09:10:03;13.57;;;2.17;;
21038;SDS011;10678;51.002;4.786;2023-04-03T09:12:39;8.95;;;2.28;;
21038;SDS011;10678;51.002;4.786;2023-04-03T09:18:28;7.47;;;2.17;;
21038;SDS011;10678;51.002;4.786;2023-04-03T09:20:53;7.35;;;2.10;;
21038;SDS011;10678;51.002;4.786;2023-04-03T09:23:26;5.57;;;2.03;;
21038;SDS011;10678;51.002;4.786;2023-04-03T09:25:54;7.60;;;2.25;;
21038;SDS011;10678;51.002;4.786;2023-04-03T09:28:29;8.57;;;2.05;;
21038;SDS011;10678;51.002;4.786;2023-04-03T09:30:59;5.72;;;1.77;;
21038;SDS011;10678;51.002;4.786;2023-04-03T09:33:25;7.13;;;2.25;;
21038;SDS011;10678;51.002;4.786;2023-04-03T09:35:52;10.77;;;2.25;;
21038;SDS011;10678;51.002;4.786;2023-04-03T09:38:19;7.05;;;2.20;;
21038;SDS011;10678;51.002;4.786;2023-04-03T09:40:51;6.03;;;2.45;;
21038;SDS011;10678;51.002;4.786;2023-04-03T09:43:31;6.20;;;1.70;;
21038;SDS011;10678;51.002;4.786;2023-04-03T09:46:19;5.85;;;1.92;;
21038;SDS011;10678;51.002;4.786;2023-04-03T09:48:57;7.30;;;2.13;;
21038;SDS011;10678;51.002;4.786;2023-04-03T09:51:27;8.02;;;1.98;;
21038;SDS011;10678;51.002;4.786;2023-04-03T09:53:54;6.95;;;1.90;;
21038;SDS011;10678;51.002;4.786;2023-04-03T10:01:38;8.90;;;1.88;;
21038;SDS011;10678;51.002;4.786;2023-04-03T10:06:45;5.30;;;1.73;;
21038;SDS011;10678;51.002;4.786;2023-04-03T10:11:59;7.10;;;1.83;;
21038;SDS011;10678;51.002;4.786;2023-04-03T10:14:33;8.10;;;2.00;;
21038;SDS011;10678;51.002;4.786;2023-04-03T10:20:03;11.57;;;2.05;;
21038;SDS011;10678;51.002;4.786;2023-04-03T10:23:50;5.75;;;1.75;;
21038;SDS011;10678;51.002;4.786;2023-04-03T10:33:36;5.75;;;1.75;;
21038;SDS011;10678;51.002;4.786;2023-04-03T10:36:31;8.48;;;1.52;;
21038;SDS011;10678;51.002;4.786;2023-04-03T10:41:56;4.72;;;1.38;;
21038;SDS011;10678;51.002;4.786;2023-04-03T10:47:34;6.07;;;1.73;;
21038;SDS011;10678;51.002;4.786;2023-04-03T10:57:59;4.88;;;1.55;;
21038;SDS011;10678;51.002;4.786;2023-04-03T11:00:31;5.20;;;1.70;;
21038;SDS011;10678;51.002;4.786;2023-04-03T11:03:06;5.70;;;1.90;;
21038;SDS011;10678;51.002;4.786;2023-04-03T11:05:42;6.18;;;1.45;;
21038;SDS011;10678;51.002;4.786;2023-04-03T11:08:13;6.53;;;1.60;;
21038;SDS011;10678;51.002;4.786;2023-04-03T11:10:41;9.68;;;1.48;;
21038;SDS011;10678;51.002;4.786;2023-04-03T11:15:48;6.47;;;1.30;;
21038;SDS011;10678;51.002;4.786;2023-04-03T11:18:27;5.45;;;1.65;;
21038;SDS011;10678;51.002;4.786;2023-04-03T11:23:33;4.75;;;1.52;;
21038;SDS011;10678;51.002;4.786;2023-04-03T11:26:06;5.32;;;1.33;;
21038;SDS011;10678;51.002;4.786;2023-04-03T11:28:37;5.50;;;1.02;;
21038;SDS011;10678;51.002;4.786;2023-04-03T11:33:52;4.32;;;1.15;;
21038;SDS011;10678;51.002;4.786;2023-04-03T11:36:54;2.65;;;1.05;;
21038;SDS011;10678;51.002;4.786;2023-04-03T11:39:32;4.80;;;1.10;;
21038;SDS011;10678;51.002;4.786;2023-04-03T11:44:40;5.50;;;1.33;;
21038;SDS011;10678;51.002;4.786;2023-04-03T11:47:06;4.85;;;1.55;;
21038;SDS011;10678;51.002;4.786;2023-04-03T12:05:49;4.10;;;1.13;;
21038;SDS011;10678;51.002;4.786;2023-04-03T12:08:16;3.97;;;1.00;;
21038;SDS011;10678;51.002;4.786;2023-04-03T12:21:18;4.07;;;1.00;;
21038;SDS011;10678;51.002;4.786;2023-04-03T12:23:56;3.90;;;1.23;;
21038;SDS011;10678;51.002;4.786;2023-04-03T12:42:44;5.07;;;0.98;;
21038;SDS011;10678;51.002;4.786;2023-04-03T12:45:47;4.22;;;1.30;;
21038;SDS011;10678;51.002;4.786;2023-04-03T12:48:25;4.90;;;1.40;;
21038;SDS011;10678;51.002;4.786;2023-04-03T12:50:52;4.35;;;1.30;;
21038;SDS011;10678;51.002;4.786;2023-04-03T12:53:21;4.40;;;1.27;;
21038;SDS011;10678;51.002;4.786;2023-04-03T12:55:55;4.05;;;1.35;;
21038;SDS011;10678;51.002;4.786;2023-04-03T12:58:23;4.10;;;1.40;;
21038;SDS011;10678;51.002;4.786;2023-04-03T13:03:26;4.25;;;1.55;;
21038;SDS011;10678;51.002;4.786;2023-04-03T13:05:58;3.75;;;1.10;;
21038;SDS011;10678;51.002;4.786;2023-04-03T13:08:28;6.85;;;1.55;;
21038;SDS011;10678;51.002;4.786;2023-04-03T13:11:30;6.68;;;1.55;;
21038;SDS011;10678;51.002;4.786;2023-04-03T13:13:58;5.30;;;1.25;;
21038;SDS011;10678;51.002;4.786;2023-04-03T13:16:24;3.33;;;1.08;;
21038;SDS011;10678;51.002;4.786;2023-04-03T13:18:51;5.38;;;1.50;;
21038;SDS011;10678;51.002;4.786;2023-04-03T13:21:23;4.13;;;1.50;;
21038;SDS011;10678;51.002;4.786;2023-04-03T13:23:53;3.75;;;1.20;;
21038;SDS011;10678;51.002;4.786;2023-04-03T13:26:22;6.22;;;1.08;;
21038;SDS011;10678;51.002;4.786;2023-04-03T13:28:51;4.35;;;1.25;;
21038;SDS011;10678;51.002;4.786;2023-04-03T13:31:39;3.13;;;1.10;;
21038;SDS011;10678;51.002;4.786;2023-04-03T13:34:10;4.75;;;1.33;;
21038;SDS011;10678;51.002;4.786;2023-04-03T13:36:40;3.95;;;1.23;;
21038;SDS011;10678;51.002;4.786;2023-04-03T13:41:38;7.68;;;2.15;;
21038;SDS011;10678;51.002;4.786;2023-04-03T13:44:15;4.07;;;1.20;;
21038;SDS011;10678;51.002;4.786;2023-04-03T13:47:21;5.85;;;1.20;;
21038;SDS011;10678;51.002;4.786;2023-04-03T13:49:40;5.40;;;1.95;;
21038;SDS011;10678;51.002;4.786;2023-04-03T13:53:09;2.72;;;1.02;;
21038;SDS011;10678;51.002;4.786;2023-04-03T13:55:51;5.43;;;1.10;;
21038;SDS011;10678;51.002;4.786;2023-04-03T14:00:33;3.83;;;1.08;;
21038;SDS011;10678;51.002;4.786;2023-04-03T14:05:51;5.88;;;1.35;;
21038;SDS011;10678;51.002;4.786;2023-04-03T14:08:17;4.90;;;1.20;;
21038;SDS011;10678;51.002;4.786;2023-04-03T14:10:44;4.43;;;1.15;;
21038;SDS011;10678;51.002;4.786;2023-04-03T14:13:13;3.83;;;1.35;;
21038;SDS011;10678;51.002;4.786;2023-04-03T14:15:41;3.97;;;1.00;;
21038;SDS011;10678;51.002;4.786;2023-04-03T14:18:10;4.60;;;1.30;;
21038;SDS011;10678;51.002;4.786;2023-04-03T14:20:37;4.70;;;1.15;;
21038;SDS011;10678;51.002;4.786;2023-04-03T14:23:04;6.38;;;1.83;;
21038;SDS011;10678;51.002;4.786;2023-04-03T14:25:31;4.30;;;1.15;;
21038;SDS011;10678;51.002;4.786;2023-04-03T14:27:57;5.22;;;1.48;;
21038;SDS011;10678;51.002;4.786;2023-04-03T14:30:32;4.38;;;1.02;;
21038;SDS011;10678;51.002;4.786;2023-04-03T14:32:59;5.28;;;1.00;;
21038;SDS011;10678;51.002;4.786;2023-04-03T14:35:26;2.47;;;0.85;;
21038;SDS011;10678;51.002;4.786;2023-04-03T14:37:52;6.97;;;1.15;;
21038;SDS011;10678;51.002;4.786;2023-04-03T14:40:20;3.90;;;1.10;;
21038;SDS011;10678;51.002;4.786;2023-04-03T14:42:48;4.07;;;1.35;;
21038;SDS011;10678;51.002;4.786;2023-04-03T14:45:15;7.00;;;1.50;;
21038;SDS011;10678;51.002;4.786;2023-04-03T14:47:50;4.05;;;1.10;;
21038;SDS011;10678;51.002;4.786;2023-04-03T14:50:21;4.88;;;1.55;;
21038;SDS011;10678;51.002;4.786;2023-04-03T14:52:49;4.28;;;1.10;;
21038;SDS011;10678;51.002;4.786;2023-04-03T14:55:18;3.53;;;1.10;;
21038;SDS011;10678;51.002;4.786;2023-04-03T14:57:45;3.55;;;1.42;;
21038;SDS011;10678;51.002;4.786;2023-04-03T15:00:20;5.03;;;1.17;;
21038;SDS011;10678;51.002;4.786;2023-04-03T15:02:47;4.32;;;1.30;;
21038;SDS011;10678;51.002;4.786;2023-04-03T15:05:14;6.82;;;1.40;;
21038;SDS011;10678;51.002;4.786;2023-04-03T15:07:44;3.90;;;1.40;;
21038;SDS011;10678;51.002;4.786;2023-04-03T15:12:42;4.28;;;1.30;;
21038;SDS011;10678;51.002;4.786;2023-04-03T15:15:09;3.88;;;1.20;;
21038;SDS011;10678;51.002;4.786;2023-04-03T15:17:35;4.95;;;1.15;;
21038;SDS011;10678;51.002;4.786;2023-04-03T15:20:02;5.65;;;1.70;;
21038;SDS011;10678;51.002;4.786;2023-04-03T15:22:28;4.72;;;1.40;;
21038;SDS011;10678;51.002;4.786;2023-04-03T15:24:54;6.20;;;1.30;;
21038;SDS011;10678;51.002;4.786;2023-04-03T15:27:20;10.35;;;1.38;;
21038;SDS011;10678;51.002;4.786;2023-04-03T15:29:46;4.40;;;1.30;;
21038;SDS011;10678;51.002;4.786;2023-04-03T15:32:12;4.28;;;1.13;;
21038;SDS011;10678;51.002;4.786;2023-04-03T15:34:38;5.50;;;1.20;;
21038;SDS011;10678;51.002;4.786;2023-04-03T15:37:04;6.07;;;1.13;;
21038;SDS011;10678;51.002;4.786;2023-04-03T15:39:30;5.93;;;1.75;;
21038;SDS011;10678;51.002;4.786;2023-04-03T15:41:56;5.55;;;1.60;;
21038;SDS011;10678;51.002;4.786;2023-04-03T15:44:24;4.28;;;1.38;;
21038;SDS011;10678;51.002;4.786;2023-04-03T15:46:50;3.60;;;1.23;;
21038;SDS011;10678;51.002;4.786;2023-04-03T15:49:16;3.20;;;1.30;;
21038;SDS011;10678;51.002;4.786;2023-04-03T15:51:43;3.97;;;1.40;;
21038;SDS011;10678;51.002;4.786;2023-04-03T15:54:09;4.40;;;1.20;;
21038;SDS011;10678;51.002;4.786;2023-04-03T15:56:35;4.22;;;1.40;;
21038;SDS011;10678;51.002;4.786;2023-04-03T15:59:01;3.17;;;1.17;;
21038;SDS011;10678;51.002;4.786;2023-04-03T16:01:26;6.82;;;1.33;;
21038;SDS011;10678;51.002;4.786;2023-04-03T16:03:52;9.82;;;1.70;;
21038;SDS011;10678;51.002;4.786;2023-04-03T16:06:18;4.60;;;1.40;;
21038;SDS011;10678;51.002;4.786;2023-04-03T16:08:44;4.97;;;1.48;;
21038;SDS011;10678;51.002;4.786;2023-04-03T16:11:11;5.43;;;1.35;;
21038;SDS011;10678;51.002;4.786;2023-04-03T16:13:37;3.50;;;1.10;;
21038;SDS011;10678;51.002;4.786;2023-04-03T16:16:03;5.32;;;1.35;;
21038;SDS011;10678;51.002;4.786;2023-04-03T16:18:30;4.85;;;1.48;;
21038;SDS011;10678;51.002;4.786;2023-04-03T16:20:56;4.68;;;1.48;;
21038;SDS011;10678;51.002;4.786;2023-04-03T16:23:22;4.80;;;1.30;;
21038;SDS011;10678;51.002;4.786;2023-04-03T16:25:47;3.42;;;1.15;;
21038;SDS011;10678;51.002;4.786;2023-04-03T16:28:14;5.60;;;1.27;;
21038;SDS011;10678;51.002;4.786;2023-04-03T16:30:42;4.38;;;1.30;;
21038;SDS011;10678;51.002;4.786;2023-04-03T16:33:09;4.63;;;1.30;;
21038;SDS011;10678;51.002;4.786;2023-04-03T16:35:36;3.65;;;1.40;;
21038;SDS011;10678;51.002;4.786;2023-04-03T16:38:09;6.55;;;1.60;;
21038;SDS011;10678;51.002;4.786;2023-04-03T16:40:35;4.85;;;1.30;;
21038;SDS011;10678;51.002;4.786;2023-04-03T16:43:01;7.18;;;1.70;;
21038;SDS011;10678;51.002;4.786;2023-04-03T16:45:27;4.50;;;1.25;;
21038;SDS011;10678;51.002;4.786;2023-04-03T16:47:53;3.65;;;1.20;;
21038;SDS011;10678;51.002;4.786;2023-04-03T16:50:18;8.18;;;1.88;;